createdAt,value
2023-03-17T00:00:20.022Z,8.72
2023-03-17T00:02:58.884Z,8.70
2023-03-17T00:05:35.638Z,8.68
2023-03-17T00:08:26.478Z,8.69
2023-03-17T00:10:59.206Z,8.77
2023-03-17T00:13:31.282Z,8.76
2023-03-17T00:16:08.260Z,8.80
2023-03-17T00:18:47.244Z,8.79
2023-03-17T00:21:22.352Z,8.75
2023-03-17T00:23:58.319Z,8.73
2023-03-17T00:26:35.256Z,8.71
2023-03-17T00:29:06.695Z,8.62
2023-03-17T00:31:41.367Z,8.60
2023-03-17T00:34:23.670Z,8.51
2023-03-17T00:36:58.636Z,8.48
2023-03-17T00:39:33.126Z,8.47
2023-03-17T00:42:03.634Z,8.48
2023-03-17T00:44:33.215Z,8.42
2023-03-17T00:47:02.227Z,8.39
2023-03-17T00:49:32.811Z,8.33
2023-03-17T00:52:01.692Z,8.26
2023-03-17T00:54:30.121Z,8.26
2023-03-17T00:57:01.484Z,8.23
2023-03-17T00:59:32.529Z,8.18
2023-03-17T01:02:00.947Z,8.17
2023-03-17T01:04:29.376Z,8.13
2023-03-17T01:06:59.705Z,8.13
2023-03-17T01:09:28.850Z,8.18
2023-03-17T01:11:59.899Z,8.15
2023-03-17T01:14:28.506Z,8.14
2023-03-17T01:16:56.832Z,8.17
2023-03-17T01:19:25.196Z,8.13
2023-03-17T01:21:53.467Z,8.11
2023-03-17T01:24:23.195Z,8.15
2023-03-17T01:26:52.022Z,8.13
2023-03-17T01:29:20.441Z,8.15
2023-03-17T01:31:48.760Z,8.18
2023-03-17T01:34:16.888Z,8.23
2023-03-17T01:36:45.212Z,8.24
2023-03-17T01:39:14.537Z,8.28
2023-03-17T01:41:45.673Z,8.30
2023-03-17T01:44:18.574Z,8.32
2023-03-17T01:46:47.566Z,8.36
2023-03-17T01:49:26.477Z,8.39
2023-03-17T01:52:09.363Z,8.41
2023-03-17T01:54:42.407Z,8.41
2023-03-17T01:57:20.262Z,8.41
2023-03-17T01:59:52.199Z,8.43
2023-03-17T02:02:25.852Z,8.43
2023-03-17T02:04:54.656Z,8.47
2023-03-17T02:07:26.794Z,8.48
2023-03-17T02:09:57.147Z,8.48
2023-03-17T02:12:30.405Z,8.60
2023-03-17T02:14:59.626Z,8.56
2023-03-17T02:17:29.856Z,8.59
2023-03-17T02:19:58.262Z,8.64
2023-03-17T02:22:28.625Z,8.67
2023-03-17T02:25:05.611Z,8.67
2023-03-17T02:27:41.619Z,8.71
2023-03-17T02:30:12.356Z,8.74
2023-03-17T02:32:40.699Z,8.72
2023-03-17T02:35:09.661Z,8.70
2023-03-17T02:37:40.425Z,8.76
2023-03-17T02:40:11.375Z,8.80
2023-03-17T02:42:41.322Z,8.80
2023-03-17T02:45:12.518Z,8.82
2023-03-17T02:47:42.400Z,8.89
2023-03-17T02:50:20.232Z,8.86
2023-03-17T02:52:50.202Z,8.96
2023-03-17T02:55:18.892Z,8.92
2023-03-17T02:57:47.385Z,8.97
2023-03-17T03:00:15.701Z,8.93
2023-03-17T03:02:43.891Z,8.95
2023-03-17T03:05:12.792Z,8.92
2023-03-17T03:07:41.081Z,8.98
2023-03-17T03:10:12.561Z,8.99
2023-03-17T03:12:40.977Z,8.95
2023-03-17T03:15:09.798Z,8.93
2023-03-17T03:17:38.249Z,8.93
2023-03-17T03:20:06.788Z,8.98
2023-03-17T03:22:35.073Z,8.92
2023-03-17T03:25:03.649Z,8.88
2023-03-17T03:27:33.369Z,8.88
2023-03-17T03:30:02.162Z,8.90
2023-03-17T03:32:30.429Z,8.88
2023-03-17T03:34:58.714Z,8.90
2023-03-17T03:37:27.475Z,8.96
2023-03-17T03:39:55.960Z,8.98
2023-03-17T03:42:24.362Z,8.96
2023-03-17T03:44:54.068Z,8.96
2023-03-17T03:47:22.430Z,9.04
2023-03-17T03:49:50.794Z,9.04
2023-03-17T03:52:18.937Z,9.02
2023-03-17T03:54:47.342Z,9.04
2023-03-17T03:57:15.550Z,8.99
2023-03-17T03:59:43.845Z,9.03
2023-03-17T04:02:13.659Z,9.02
2023-03-17T04:04:42.287Z,9.03
2023-03-17T04:07:10.889Z,9.09
2023-03-17T04:09:39.406Z,9.04
2023-03-17T04:12:08.728Z,9.05
2023-03-17T04:14:37.427Z,9.08
2023-03-17T04:17:05.923Z,9.09
2023-03-17T04:19:35.398Z,9.05
2023-03-17T04:22:03.795Z,9.07
2023-03-17T04:24:32.287Z,9.03
2023-03-17T04:27:00.359Z,9.04
2023-03-17T04:29:28.758Z,9.10
2023-03-17T04:31:57.088Z,9.07
2023-03-17T04:34:25.295Z,9.08
2023-03-17T04:36:55.124Z,9.06
2023-03-17T04:39:23.788Z,9.05
2023-03-17T04:41:52.296Z,9.01
2023-03-17T04:44:20.765Z,9.01
2023-03-17T04:46:49.157Z,8.99
2023-03-17T04:49:17.307Z,8.99
2023-03-17T04:51:45.884Z,9.00
2023-03-17T04:54:16.658Z,9.03
2023-03-17T04:56:45.140Z,9.05
2023-03-17T04:59:13.601Z,9.09
2023-03-17T05:01:42.107Z,9.08
2023-03-17T05:04:12.769Z,9.02
2023-03-17T05:06:45.608Z,9.07
2023-03-17T05:09:15.416Z,9.08
2023-03-17T05:11:43.669Z,9.11
2023-03-17T05:14:11.901Z,9.08
2023-03-17T05:16:40.346Z,9.14
2023-03-17T05:19:08.963Z,9.14
2023-03-17T05:21:37.309Z,9.10
2023-03-17T05:24:05.608Z,9.12
2023-03-17T05:26:35.106Z,9.09
2023-03-17T05:29:03.507Z,9.14
2023-03-17T05:31:31.717Z,9.12
2023-03-17T05:34:00.194Z,9.15
2023-03-17T05:36:28.629Z,9.19
2023-03-17T05:38:57.086Z,9.14
2023-03-17T05:41:25.430Z,9.14
2023-03-17T05:43:55.110Z,9.17
2023-03-17T05:46:23.996Z,9.20
2023-03-17T05:48:52.532Z,9.19
2023-03-17T05:51:22.900Z,9.21
2023-03-17T05:53:51.690Z,9.23
2023-03-17T05:56:20.149Z,9.18
2023-03-17T05:58:48.478Z,9.22
2023-03-17T06:01:18.061Z,9.19
2023-03-17T06:03:46.930Z,9.21
2023-03-17T06:06:15.775Z,9.21
2023-03-17T06:08:44.259Z,9.22
2023-03-17T06:11:13.244Z,9.20
2023-03-17T06:13:41.692Z,9.18
2023-03-17T06:16:10.198Z,9.22
2023-03-17T06:18:39.993Z,9.14
2023-03-17T06:21:08.330Z,9.22
2023-03-17T06:23:37.028Z,9.27
2023-03-17T06:26:05.874Z,9.26
2023-03-17T06:28:34.380Z,9.27
2023-03-17T06:31:04.628Z,9.28
2023-03-17T06:33:34.660Z,9.24
2023-03-17T06:36:05.020Z,9.23
2023-03-17T06:38:33.519Z,9.22
2023-03-17T06:41:01.882Z,9.23
2023-03-17T06:43:30.217Z,9.19
2023-03-17T06:45:58.610Z,9.24
2023-03-17T06:48:27.034Z,9.19
2023-03-17T06:50:55.595Z,9.22
2023-03-17T06:53:25.857Z,9.25
2023-03-17T06:55:54.189Z,9.25
2023-03-17T06:58:23.099Z,9.21
2023-03-17T07:00:54.233Z,9.23
2023-03-17T07:03:24.263Z,9.25
2023-03-17T07:05:53.355Z,9.26
2023-03-17T07:08:22.176Z,9.30
2023-03-17T07:10:52.851Z,9.32
2023-03-17T07:13:21.206Z,9.31
2023-03-17T07:15:50.263Z,9.35
2023-03-17T07:18:19.365Z,9.40
2023-03-17T07:20:48.069Z,9.37
2023-03-17T07:23:18.482Z,9.36
2023-03-17T07:25:47.404Z,9.39
2023-03-17T07:28:17.133Z,9.42
2023-03-17T07:30:47.096Z,9.45
2023-03-17T07:33:17.023Z,9.45
2023-03-17T07:35:45.572Z,9.48
2023-03-17T07:38:13.976Z,9.48
2023-03-17T07:40:42.267Z,9.45
2023-03-17T07:43:10.889Z,9.51
2023-03-17T07:45:41.021Z,9.50
2023-03-17T07:48:09.787Z,9.54
2023-03-17T07:50:38.466Z,9.57
2023-03-17T07:53:06.927Z,9.57
2023-03-17T07:55:35.847Z,9.47
2023-03-17T07:58:04.722Z,9.55
2023-03-17T08:00:34.798Z,9.62
2023-03-17T08:03:10.285Z,9.58
2023-03-17T08:05:39.731Z,9.63
2023-03-17T08:08:08.078Z,9.63
2023-03-17T08:10:36.321Z,9.60
2023-03-17T08:13:04.796Z,9.65
2023-03-17T08:15:33.164Z,9.59
2023-03-17T08:18:02.562Z,9.60
2023-03-17T08:20:33.029Z,9.60
2023-03-17T08:23:01.967Z,9.59
2023-03-17T08:25:30.387Z,9.61
2023-03-17T08:27:58.560Z,9.58
2023-03-17T08:30:27.405Z,9.56
2023-03-17T08:32:55.933Z,9.52
2023-03-17T08:35:24.216Z,9.50
2023-03-17T08:37:56.197Z,9.42
2023-03-17T08:40:25.120Z,9.44
2023-03-17T08:42:53.663Z,9.45
2023-03-17T08:45:22.446Z,9.45
2023-03-17T08:47:50.736Z,9.39
2023-03-17T08:50:22.149Z,9.38
2023-03-17T08:52:51.580Z,9.38
2023-03-17T08:55:21.465Z,9.35
2023-03-17T08:57:50.279Z,9.37
2023-03-17T09:00:21.031Z,9.36
2023-03-17T09:02:50.252Z,9.43
2023-03-17T09:05:19.649Z,9.44
2023-03-17T09:07:49.620Z,9.44
2023-03-17T09:10:22.761Z,9.45
2023-03-17T09:12:53.606Z,9.46
2023-03-17T09:15:22.398Z,9.49
2023-03-17T09:17:51.810Z,9.51
2023-03-17T09:20:22.847Z,9.49
2023-03-17T09:22:51.713Z,9.48
2023-03-17T09:25:20.808Z,9.49
2023-03-17T09:27:49.226Z,9.47
2023-03-17T09:30:19.764Z,9.49
2023-03-17T09:32:48.598Z,9.52
2023-03-17T09:35:17.074Z,9.51
2023-03-17T09:37:45.392Z,9.54
2023-03-17T09:40:16.440Z,9.54
2023-03-17T09:42:54.706Z,9.58
2023-03-17T09:45:29.733Z,9.55
2023-03-17T09:48:11.168Z,9.66
2023-03-17T09:50:46.136Z,9.63
2023-03-17T09:53:19.963Z,9.70
2023-03-17T09:55:53.003Z,9.69
2023-03-17T09:58:26.427Z,9.69
2023-03-17T10:00:56.371Z,9.75
2023-03-17T10:03:25.951Z,9.75
2023-03-17T10:05:55.279Z,9.76
2023-03-17T10:08:31.725Z,9.80
2023-03-17T10:11:06.379Z,9.84
2023-03-17T10:13:50.675Z,9.89
2023-03-17T10:16:24.350Z,9.93
2023-03-17T10:18:56.936Z,9.99
2023-03-17T10:21:29.498Z,10.03
2023-03-17T10:23:59.434Z,10.08
2023-03-17T10:26:32.901Z,10.19
2023-03-17T10:29:04.412Z,10.17
2023-03-17T10:31:38.172Z,10.24
2023-03-17T10:34:15.909Z,10.33
2023-03-17T10:36:47.496Z,10.33
2023-03-17T10:39:20.138Z,10.34
2023-03-17T10:41:55.867Z,10.28
2023-03-17T10:44:37.001Z,10.41
2023-03-17T10:47:07.184Z,10.37
2023-03-17T10:49:38.282Z,10.45
2023-03-17T10:52:09.208Z,10.49
2023-03-17T10:54:38.528Z,10.52
2023-03-17T10:57:11.068Z,10.53
2023-03-17T10:59:44.917Z,10.51
2023-03-17T11:02:24.528Z,10.53
2023-03-17T11:04:56.415Z,10.59
2023-03-17T11:07:31.406Z,10.55
2023-03-17T11:10:03.097Z,10.66
2023-03-17T11:12:39.476Z,10.58
2023-03-17T11:15:12.282Z,10.57
2023-03-17T11:17:49.751Z,10.51
2023-03-17T11:20:33.072Z,10.52
2023-03-17T11:23:07.405Z,10.55
2023-03-17T11:25:42.558Z,10.54
2023-03-17T11:28:20.426Z,10.50
2023-03-17T11:30:58.965Z,10.50
2023-03-17T11:33:38.518Z,10.41
2023-03-17T11:36:18.901Z,10.41
2023-03-17T11:38:59.712Z,10.41
2023-03-17T11:41:42.681Z,10.40
2023-03-17T11:44:32.060Z,10.47
2023-03-17T11:47:10.240Z,10.49
2023-03-17T11:49:42.030Z,10.51
2023-03-17T11:52:22.122Z,10.60
2023-03-17T11:55:00.135Z,10.65
2023-03-17T11:57:33.916Z,10.70
2023-03-17T12:00:06.225Z,10.73
2023-03-17T12:02:44.126Z,10.87
2023-03-17T12:05:17.394Z,10.98
2023-03-17T12:07:51.538Z,10.94
2023-03-17T12:10:24.370Z,11.12
2023-03-17T12:12:57.165Z,11.17
2023-03-17T12:15:31.862Z,11.23
2023-03-17T12:18:05.753Z,11.32
2023-03-17T12:20:46.664Z,11.45
2023-03-17T12:23:21.963Z,11.67
2023-03-17T12:25:59.425Z,11.83
2023-03-17T12:28:32.220Z,11.96
2023-03-17T12:31:07.250Z,12.06
2023-03-17T12:33:43.921Z,12.12
2023-03-17T12:36:17.966Z,12.13
2023-03-17T12:38:52.638Z,12.08
2023-03-17T12:41:30.307Z,12.05
2023-03-17T12:44:08.060Z,12.07
2023-03-17T12:47:01.795Z,12.10
2023-03-17T12:50:02.681Z,12.16
2023-03-17T12:52:47.686Z,12.15
2023-03-17T12:55:19.107Z,12.16
2023-03-17T12:57:49.415Z,12.19
2023-03-17T13:00:28.438Z,12.30
2023-03-17T13:03:13.410Z,12.23
2023-03-17T13:05:48.273Z,12.35
2023-03-17T13:08:25.872Z,12.33
2023-03-17T13:11:27.400Z,12.37
2023-03-17T13:14:15.576Z,12.33
2023-03-17T13:16:48.197Z,12.52
2023-03-17T13:19:20.956Z,12.65
2023-03-17T13:21:59.156Z,12.73
2023-03-17T13:24:47.446Z,12.74
2023-03-17T13:27:44.325Z,12.76
2023-03-17T13:30:50.541Z,12.70
2023-03-17T13:33:24.171Z,12.75
2023-03-17T13:36:17.356Z,12.69
2023-03-17T13:39:19.248Z,12.70
2023-03-17T13:42:18.045Z,12.76
2023-03-17T13:45:09.282Z,12.89
2023-03-17T13:47:42.402Z,13.02
2023-03-17T13:50:16.239Z,13.03
2023-03-17T13:52:49.683Z,13.10
2023-03-17T13:55:35.689Z,13.25
2023-03-17T13:58:27.600Z,13.41
2023-03-17T14:01:03.906Z,13.43
2023-03-17T14:03:41.421Z,13.41
2023-03-17T14:06:12.076Z,13.30
2023-03-17T14:08:45.891Z,13.18
2023-03-17T14:11:24.213Z,13.09
2023-03-17T14:14:10.780Z,13.16
2023-03-17T14:16:48.687Z,13.15
2023-03-17T14:19:21.848Z,13.14
2023-03-17T14:21:50.582Z,12.94
2023-03-17T14:24:24.404Z,13.02
2023-03-17T14:26:53.924Z,13.00
2023-03-17T14:29:31.254Z,13.12
2023-03-17T14:32:05.413Z,13.15
2023-03-17T14:34:34.537Z,13.13
2023-03-17T14:37:05.512Z,13.23
2023-03-17T14:39:33.922Z,13.35
2023-03-17T14:42:03.836Z,13.38
2023-03-17T14:44:39.723Z,13.20
2023-03-17T14:47:18.132Z,12.97
2023-03-17T14:49:46.638Z,12.92
2023-03-17T14:52:22.406Z,12.88
2023-03-17T14:54:53.755Z,12.85
2023-03-17T14:57:27.157Z,12.75
2023-03-17T15:00:00.216Z,12.79
2023-03-17T15:02:44.321Z,12.77
2023-03-17T15:05:26.633Z,12.73
2023-03-17T15:07:55.533Z,12.71
2023-03-17T15:10:31.287Z,12.75
2023-03-17T15:13:03.073Z,12.68
2023-03-17T15:15:33.711Z,12.68
2023-03-17T15:18:08.911Z,12.61
2023-03-17T15:20:37.457Z,12.81
2023-03-17T15:23:06.241Z,12.87
2023-03-17T15:25:38.249Z,12.88
2023-03-17T15:28:12.548Z,12.86
2023-03-17T15:30:47.623Z,12.94
2023-03-17T15:33:23.140Z,12.93
2023-03-17T15:35:51.938Z,13.08
2023-03-17T15:38:21.612Z,13.21
2023-03-17T15:40:50.418Z,13.20
2023-03-17T15:43:21.690Z,13.17
2023-03-17T15:45:55.507Z,13.26
2023-03-17T15:48:27.736Z,13.06
2023-03-17T15:50:57.715Z,13.08
2023-03-17T15:53:26.050Z,12.99
2023-03-17T15:55:54.679Z,13.04
2023-03-17T15:58:22.911Z,13.09
2023-03-17T16:00:54.704Z,13.13
2023-03-17T16:03:30.145Z,13.20
2023-03-17T16:05:59.646Z,13.09
2023-03-17T16:08:28.061Z,13.00
2023-03-17T16:10:56.314Z,12.76
2023-03-17T16:13:24.635Z,12.74
2023-03-17T16:15:56.684Z,12.66
2023-03-17T16:18:32.739Z,12.65
2023-03-17T16:21:02.933Z,12.67
2023-03-17T16:23:36.868Z,12.71
2023-03-17T16:26:14.726Z,12.80
2023-03-17T16:28:46.174Z,12.83
2023-03-17T16:31:26.806Z,12.79
2023-03-17T16:33:57.651Z,12.71
2023-03-17T16:36:27.103Z,12.70
2023-03-17T16:38:55.659Z,12.76
2023-03-17T16:41:24.523Z,12.60
2023-03-17T16:43:55.458Z,12.69
2023-03-17T16:46:24.128Z,12.73
2023-03-17T16:48:52.481Z,12.80
2023-03-17T16:51:22.708Z,12.86
2023-03-17T16:53:51.562Z,12.89
2023-03-17T16:56:22.079Z,12.72
2023-03-17T16:58:50.656Z,12.73
2023-03-17T17:01:19.632Z,12.61
2023-03-17T17:03:48.891Z,12.55
2023-03-17T17:06:17.725Z,12.47
2023-03-17T17:08:48.299Z,12.28
2023-03-17T17:11:17.998Z,12.30
2023-03-17T17:13:48.512Z,12.15
2023-03-17T17:16:23.612Z,12.01
2023-03-17T17:18:52.397Z,11.82
2023-03-17T17:21:20.952Z,11.84
2023-03-17T17:23:52.824Z,11.64
2023-03-17T17:26:22.098Z,11.75
2023-03-17T17:28:50.688Z,11.66
2023-03-17T17:31:19.479Z,11.65
2023-03-17T17:33:48.733Z,11.57
2023-03-17T17:36:19.023Z,11.61
2023-03-17T17:38:47.946Z,11.58
2023-03-17T17:41:21.700Z,11.62
2023-03-17T17:43:51.259Z,11.62
2023-03-17T17:46:21.671Z,11.56
2023-03-17T17:48:50.319Z,11.63
2023-03-17T17:51:18.600Z,11.55
2023-03-17T17:53:46.682Z,11.32
2023-03-17T17:56:18.625Z,11.43
2023-03-17T17:58:47.806Z,11.40
2023-03-17T18:01:20.175Z,11.36
2023-03-17T18:03:49.876Z,11.34
2023-03-17T18:06:19.017Z,11.35
2023-03-17T18:08:47.745Z,11.33
2023-03-17T18:11:17.697Z,11.31
2023-03-17T18:13:46.196Z,11.25
2023-03-17T18:16:17.633Z,11.22
2023-03-17T18:18:47.309Z,11.19
2023-03-17T18:21:16.068Z,11.12
2023-03-17T18:23:47.402Z,11.10
2023-03-17T18:26:18.633Z,11.01
2023-03-17T18:28:47.987Z,10.95
2023-03-17T18:31:20.084Z,10.89
2023-03-17T18:33:51.929Z,10.81
2023-03-17T18:36:21.634Z,10.75
2023-03-17T18:38:50.791Z,10.75
2023-03-17T18:41:20.580Z,10.72
2023-03-17T18:43:49.009Z,10.63
2023-03-17T18:46:17.512Z,10.54
2023-03-17T18:48:45.538Z,10.34
2023-03-17T18:51:14.144Z,10.33
2023-03-17T18:53:42.798Z,10.25
2023-03-17T18:56:11.129Z,10.17
2023-03-17T18:58:40.948Z,10.08
2023-03-17T19:01:09.542Z,9.99
2023-03-17T19:03:38.319Z,9.91
2023-03-17T19:06:12.487Z,9.89
2023-03-17T19:08:41.017Z,9.81
2023-03-17T19:11:09.599Z,9.68
2023-03-17T19:13:38.383Z,9.71
2023-03-17T19:16:09.590Z,9.68
2023-03-17T19:18:41.950Z,9.66
2023-03-17T19:21:11.970Z,9.61
2023-03-17T19:23:41.585Z,9.55
2023-03-17T19:26:10.549Z,9.51
2023-03-17T19:28:38.869Z,9.49
2023-03-17T19:31:09.509Z,9.42
2023-03-17T19:33:38.507Z,9.40
2023-03-17T19:36:09.592Z,9.27
2023-03-17T19:38:38.674Z,9.29
2023-03-17T19:41:07.915Z,9.24
2023-03-17T19:43:41.125Z,9.20
2023-03-17T19:46:13.952Z,9.16
2023-03-17T19:48:42.351Z,9.18
2023-03-17T19:51:10.680Z,9.12
2023-03-17T19:53:39.217Z,9.08
2023-03-17T19:56:08.654Z,9.02
2023-03-17T19:58:37.183Z,9.00
2023-03-17T20:01:05.707Z,8.95
2023-03-17T20:03:35.502Z,8.91
2023-03-17T20:06:06.460Z,8.87
2023-03-17T20:08:35.842Z,8.88
2023-03-17T20:11:06.102Z,8.86
2023-03-17T20:13:35.814Z,8.84
2023-03-17T20:16:04.815Z,8.81
2023-03-17T20:18:33.164Z,8.78
2023-03-17T20:21:05.848Z,8.75
2023-03-17T20:23:35.773Z,8.70
2023-03-17T20:26:05.271Z,8.74
2023-03-17T20:28:34.631Z,8.75
2023-03-17T20:31:05.013Z,8.79
2023-03-17T20:33:34.646Z,8.88
2023-03-17T20:36:06.524Z,8.93
2023-03-17T20:38:39.122Z,8.92
2023-03-17T20:41:10.071Z,8.94
2023-03-17T20:43:40.146Z,8.91
2023-03-17T20:46:13.887Z,8.96
2023-03-17T20:48:43.854Z,8.94
2023-03-17T20:51:16.557Z,8.97
2023-03-17T20:53:46.370Z,8.97
2023-03-17T20:56:16.753Z,8.99
2023-03-17T20:58:47.199Z,9.04
2023-03-17T21:01:16.515Z,9.04
2023-03-17T21:03:46.437Z,9.09
2023-03-17T21:06:16.358Z,9.10
2023-03-17T21:08:46.285Z,9.15
2023-03-17T21:11:18.543Z,9.21
2023-03-17T21:13:47.784Z,9.23
2023-03-17T21:16:18.045Z,9.27
2023-03-17T21:18:46.455Z,9.29
2023-03-17T21:21:16.672Z,9.29
2023-03-17T21:23:46.024Z,9.30
2023-03-17T21:26:15.248Z,9.33
2023-03-17T21:28:44.325Z,9.33
2023-03-17T21:31:15.070Z,9.38
2023-03-17T21:33:43.949Z,9.36
2023-03-17T21:36:12.849Z,9.35
2023-03-17T21:38:43.676Z,9.37
2023-03-17T21:41:30.653Z,9.35
2023-03-17T21:43:59.776Z,9.40
2023-03-17T21:46:28.884Z,9.40
2023-03-17T21:48:57.714Z,9.42
2023-03-17T21:51:27.605Z,9.42
2023-03-17T21:53:57.904Z,9.39
2023-03-17T21:56:27.435Z,9.41
2023-03-17T21:58:55.951Z,9.42
2023-03-17T22:01:24.488Z,9.41
2023-03-17T22:03:53.803Z,9.38
2023-03-17T22:06:24.391Z,9.37
2023-03-17T22:08:52.832Z,9.38
2023-03-17T22:11:24.172Z,9.32
2023-03-17T22:13:52.673Z,9.35
2023-03-17T22:16:21.725Z,9.36
2023-03-17T22:18:54.971Z,9.37
2023-03-17T22:21:28.893Z,9.36
2023-03-17T22:23:58.841Z,9.35
2023-03-17T22:26:29.963Z,9.38
2023-03-17T22:29:00.682Z,9.33
2023-03-17T22:31:34.924Z,9.24
2023-03-17T22:34:04.548Z,9.22
2023-03-17T22:36:34.149Z,9.19
2023-03-17T22:39:03.086Z,9.16
2023-03-17T22:41:33.589Z,9.09
2023-03-17T22:44:02.983Z,9.06
2023-03-17T22:46:31.432Z,9.04
2023-03-17T22:48:59.504Z,9.01
2023-03-17T22:51:28.570Z,9.00
2023-03-17T22:53:58.404Z,8.98
2023-03-17T22:56:27.007Z,8.97
2023-03-17T22:58:57.209Z,8.94
2023-03-17T23:01:26.076Z,8.80
2023-03-17T23:03:54.973Z,8.76
2023-03-17T23:06:23.843Z,8.68
2023-03-17T23:08:52.540Z,8.64
2023-03-17T23:11:23.790Z,8.65
2023-03-17T23:13:53.394Z,8.61
2023-03-17T23:16:24.323Z,8.65
2023-03-17T23:18:53.182Z,8.69
2023-03-17T23:21:27.748Z,8.73
2023-03-17T23:23:59.363Z,8.78
2023-03-17T23:26:28.775Z,8.78
2023-03-17T23:28:57.865Z,8.81
2023-03-17T23:31:27.628Z,8.88
2023-03-17T23:33:56.136Z,8.90
2023-03-17T23:36:24.268Z,8.92
2023-03-17T23:38:53.034Z,8.97
2023-03-17T23:41:22.775Z,9.00
2023-03-17T23:43:51.465Z,9.06
2023-03-17T23:46:21.099Z,9.07
2023-03-17T23:48:51.482Z,9.11
2023-03-17T23:51:19.974Z,9.14
2023-03-17T23:53:51.423Z,9.15
2023-03-17T23:56:21.613Z,9.16
2023-03-17T23:58:50.616Z,9.14
